Terminal Aerodrome Forecast
Issued by NWS

Home | Current Version | Previous Version | Text Only | Print | Product List | Glossary On
Versions: 1 2 3 4 5 6 7 8 9 10 11 12 13 14 15
000
FTUS45 KREV 011100
TAFMMH
TAF
KMMH 011139Z 0112/0212 VRB04KT P6SM BKN050
     FM011700 12005KT 5SM -SHSN SCT020 BKN035
     FM012000 10009KT 2SM -SHSN FEW012 BKN020
     FM020100 VRB03KT P6SM VCSH FEW020 BKN030=

USA.gov is the U.S. government's official web portal to all federal, state and local government web resources and services.